Patuxent River Naval Air Station/Trapnell Field Aiport
KNHK : rendu visible

Aérodrome :











RETROUVEZ-NOUS SUR...

 
LOGIN :

S'inscrire | Disclaimer

   EN    FR    IT 

 









Légende :    VFR   VFR Marginal   IFR   IFR Intensif   IFR Très Intensif
Visi : 
Plafond : 
>= 8 km
>= 3000ft
5 à 8 km
1000 à 3000 ft
1500m à 5 km
500 à 1000 ft
800 à 1500m
200 à 500 ft
< 800m
< 200 ft
Symboles :   Orages  Brouillard  Fortes neiges  Fortes précipitations  Vent > 20 kt






- Altitude de l'aérodrome : 39 ft


KNHK - Patuxent River Naval Air Station/Trapnell Field Aiport

DERNIER METAR :
  • 190103Z AUTO 22014G19KT 10SM BKN010 BKN022 OVC029 03/03 A3001 RMK AO2 T00330033 $

METARs EXPIRÉS :
  • 190052Z AUTO 22015G23KT 6SM BR SCT010 OVC026 03/03 A3001 RMK AO2 RAE2356UPB11E26 SLP161 P0001 T00330028 $
  • 190030Z AUTO 22010G16KT 5SM BR FEW008 BKN045 OVC050 03/03 A3003 RMK AO2 RAE2356UPB11E26 P0001 T00280028 $
  • 190020Z AUTO 22010G16KT 4SM UP BR SCT028 BKN047 OVC055 03/02 A3004 RMK AO2 RAE2356UPB11 P0000 T00280022 $
  • 182352Z AUTO 23007KT 5SM -RA BR BKN022 OVC028 02/02 A3007 RMK AO2 RAE2258B12E22B27UPB2259E46 SLP183 P0004 60019 T00220022 10044 20022 56034 $
  • 182303Z AUTO 25007KT 7SM UP BKN027 OVC033 03/02 A3010 RMK AO2 RAE2258UPB2259 P0000 T00280017 $
  • 182252Z 21004KT 10SM -RA OVC031 03/02 A3008 RMK AO2 UPB33E40 SLP187 P0006 T00280017 $

TAF TAF KNHK
Valide du 18 à 23h jusqu'au 19 à 23h UTC


1823/1923 VRB06KT 4800 RA BR BKN034 OVC044 QNH3014INS
TEMPO 1823/1903 6000 SHRA BR BKN025 OVC035
FM190300 20015G22KT 9999 BKN050 QNH2976INS
BECMG 1907/1909 30012KT 9999 SCT050 QNH2971INS AUTOMATED SENSOR METWATCH 1823 TIL 1902 T03/1823Z T08/1910Z FN00205



MET'MAP, la Météo Aéronautique d'un coup d'oeil ! - Copyright ORBIFLY Décembre 2007 - Disclaimer

ORBIFLY MET'MAP TEAM :

Programmation & Développement : Alexandra Zaïnal
Sur une idée originale de : Baudouin d'Aumeries
Assistance à la programmation : Marc-Olivier Méhu
Soutien technique & logistique : Manuel Goepfert

Contact : metmap@orbifly.com




SOURCES & CREDITS :

   NOAA       Earth
Advisory